Time;durP1;ratioP1;P1;durP2;ratioP2;P2;SDS_P1;SDS_P2;PMS_P1;PMS_P2;Temp;Humidity;BMP_temperature;BMP_pressure;BME280_temperature;BME280_humidity;BME280_pressure;Samples;Min_cycle;Max_cycle;Signal;HPM_P1;HPM_P2
2023/06/26 00:01:20;;;;;;;1999.90;999.90;;;23.40;99.90;;;;;;4950353;28;20076;-74
2023/06/26 00:03:46;;;;;;;1999.90;999.90;;;23.40;99.90;;;;;;4919641;29;20531;-73
2023/06/26 00:06:12;;;;;;;1999.90;999.90;;;23.40;99.90;;;;;;4919634;29;20060;-73
2023/06/26 00:08:38;;;;;;;1999.90;999.90;;;23.40;99.90;;;;;;4919635;29;20428;-74
2023/06/26 00:11:03;;;;;;;1999.90;999.90;;;23.30;99.90;;;;;;4919599;29;20043;-74
2023/06/26 00:13:29;;;;;;;1999.90;999.90;;;23.30;99.90;;;;;;4918458;29;20052;-74
2023/06/26 00:15:55;;;;;;;1999.90;999.90;;;23.30;99.90;;;;;;4918465;29;20052;-74
2023/06/26 00:18:21;;;;;;;1999.90;999.90;;;23.30;99.90;;;;;;4950340;29;20131;-74
2023/06/26 00:20:46;;;;;;;1999.90;999.90;;;23.30;99.90;;;;;;4919490;29;20083;-75
2023/06/26 00:23:16;;;;;;;1999.90;999.90;;;23.30;99.90;;;;;;4919252;29;20044;-74
2023/06/26 00:25:42;;;;;;;1999.90;999.90;;;23.20;99.90;;;;;;4949755;28;20052;-74
2023/06/26 00:28:08;;;;;;;1999.90;999.90;;;23.20;99.90;;;;;;4933697;29;20370;-73
2023/06/26 00:30:34;;;;;;;1999.90;999.90;;;23.20;99.90;;;;;;4918428;29;20055;-73
2023/06/26 00:32:59;;;;;;;1999.90;999.90;;;23.20;99.90;;;;;;4919002;29;20477;-74
2023/06/26 00:35:25;;;;;;;1999.90;999.90;;;23.20;99.90;;;;;;4919344;29;20083;-74
2023/06/26 00:37:51;;;;;;;1999.90;999.90;;;23.10;99.90;;;;;;4919440;29;20052;-73
2023/06/26 00:40:17;;;;;;;1999.90;999.90;;;23.10;99.90;;;;;;4919093;29;20059;-73
2023/06/26 00:42:42;;;;;;;1999.90;999.90;;;23.10;99.90;;;;;;4934027;29;20048;-73
2023/06/26 00:45:08;;;;;;;1999.90;999.90;;;23.10;99.90;;;;;;4918929;29;20139;-74
2023/06/26 00:47:34;;;;;;;1999.90;999.90;;;23.00;99.90;;;;;;4918940;29;20048;-75
2023/06/26 00:50:00;;;;;;;1999.90;999.90;;;23.00;99.90;;;;;;4919022;29;20123;-74
2023/06/26 00:52:26;;;;;;;1999.90;999.90;;;23.00;99.90;;;;;;4949805;29;20484;-74
2023/06/26 00:54:52;;;;;;;1999.90;999.90;;;23.00;99.90;;;;;;4917907;29;20087;-74
2023/06/26 00:57:18;;;;;;;1999.90;999.90;;;23.00;99.90;;;;;;4918694;29;20514;-74
2023/06/26 00:59:44;;;;;;;1999.90;999.90;;;23.00;99.90;;;;;;4919364;29;20055;-74
2023/06/26 01:02:09;;;;;;;1999.90;999.90;;;23.00;99.90;;;;;;4918393;29;20406;-74
2023/06/26 01:04:35;;;;;;;1999.90;999.90;;;23.00;99.90;;;;;;4933676;29;20385;-74
2023/06/26 01:07:02;;;;;;;1999.90;999.90;;;23.00;99.90;;;;;;4917891;29;20381;-74
2023/06/26 01:09:29;;;;;;;1999.90;999.90;;;23.00;99.90;;;;;;4918514;29;20389;-75
2023/06/26 01:11:54;;;;;;;1999.90;999.90;;;23.00;99.90;;;;;;4932825;29;20579;-74
2023/06/26 01:14:20;;;;;;;1999.90;999.90;;;23.00;99.90;;;;;;4918491;29;20127;-74
2023/06/26 01:16:48;;;;;;;1999.90;999.90;;;23.00;99.90;;;;;;4918794;29;20059;-74
2023/06/26 01:19:25;;;;;;;1999.90;999.90;;;23.00;99.90;;;;;;4918161;29;20512;-74
2023/06/26 01:21:58;;;;;;;1999.90;999.90;;;23.00;99.90;;;;;;4918387;29;20604;-74
2023/06/26 01:24:29;;;;;;;1999.90;999.90;;;23.00;99.90;;;;;;4918323;29;20044;-74
2023/06/26 01:26:55;;;;;;;1999.90;999.90;;;22.90;99.90;;;;;;4917324;29;20055;-74
2023/06/26 01:29:23;;;;;;;1999.90;999.90;;;22.90;99.90;;;;;;4916783;29;20090;-75
2023/06/26 01:31:49;;;;;;;1999.90;999.90;;;22.90;99.90;;;;;;4917558;29;20610;-75
2023/06/26 01:34:18;;;;;;;1999.90;999.90;;;22.90;99.90;;;;;;4917985;29;20055;-74
2023/06/26 01:36:48;;;;;;;1999.90;999.90;;;22.90;99.90;;;;;;4918086;29;20088;-74
2023/06/26 01:39:20;;;;;;;1999.90;999.90;;;22.90;99.90;;;;;;4918073;29;20044;-74
2023/06/26 01:41:46;;;;;;;1999.90;999.90;;;22.90;99.90;;;;;;4901683;29;20386;-74
2023/06/26 01:44:25;;;;;;;1999.90;999.90;;;22.90;99.90;;;;;;4918043;29;20058;-74
2023/06/26 01:47:00;;;;;;;1999.90;999.90;;;22.90;99.90;;;;;;4948882;29;20055;-74
2023/06/26 01:49:43;;;;;;;1999.90;999.90;;;22.80;99.90;;;;;;4948489;28;20056;-75
2023/06/26 01:52:23;;;;;;;1999.90;999.90;;;22.80;99.90;;;;;;4917857;29;20048;-74
2023/06/26 01:55:17;;;;;;;1999.90;999.90;;;22.80;99.90;;;;;;4917783;29;20051;-74
2023/06/26 01:57:48;;;;;;;1999.90;999.90;;;22.80;99.90;;;;;;4900932;29;20091;-74
2023/06/26 02:00:19;;;;;;;1999.90;999.90;;;22.80;99.90;;;;;;4917765;29;20524;-74
2023/06/26 02:02:45;;;;;;;1999.90;999.90;;;22.70;99.90;;;;;;4917715;29;20125;-75
2023/06/26 02:05:12;;;;;;;1999.90;999.90;;;22.70;99.90;;;;;;4917509;29;20048;-74
2023/06/26 02:07:38;;;;;;;1999.90;999.90;;;22.70;99.90;;;;;;4917384;29;20058;-74
2023/06/26 02:10:04;;;;;;;1999.90;999.90;;;22.60;99.90;;;;;;4917445;29;20044;-74
2023/06/26 02:12:30;;;;;;;1999.90;999.90;;;22.60;99.90;;;;;;4947704;28;20044;-74
2023/06/26 02:14:56;;;;;;;1999.90;999.90;;;22.60;99.90;;;;;;4917724;29;20040;-74
2023/06/26 02:17:21;;;;;;;1999.90;999.90;;;22.60;99.90;;;;;;4916433;29;20048;-74
2023/06/26 02:19:47;;;;;;;1999.90;999.90;;;22.60;99.90;;;;;;4917422;29;20536;-74
2023/06/26 02:22:14;;;;;;;1999.90;999.90;;;22.50;99.90;;;;;;4916354;29;20119;-74
2023/06/26 02:24:42;;;;;;;1999.90;999.90;;;22.50;99.90;;;;;;4947501;29;20104;-74
2023/06/26 02:27:08;;;;;;;1999.90;999.90;;;22.50;99.90;;;;;;4916964;29;20044;-75
2023/06/26 02:29:33;;;;;;;1999.90;999.90;;;22.50;99.90;;;;;;4917637;29;20063;-74
2023/06/26 02:31:59;;;;;;;1999.90;999.90;;;22.40;99.90;;;;;;4916763;29;20083;-74
2023/06/26 02:34:25;;;;;;;1999.90;999.90;;;22.40;99.90;;;;;;4917431;29;20099;-73
2023/06/26 02:36:54;;;;;;;1999.90;999.90;;;22.40;99.90;;;;;;4917311;29;20099;-74
2023/06/26 02:39:20;;;;;;;1999.90;999.90;;;22.30;99.90;;;;;;4916961;29;20060;-74
2023/06/26 02:41:45;;;;;;;1999.90;999.90;;;22.30;99.90;;;;;;4950143;28;20056;-74
2023/06/26 02:44:12;;;;;;;1999.90;999.90;;;22.30;99.90;;;;;;4935951;29;20058;-74
2023/06/26 02:46:38;;;;;;;1999.90;999.90;;;22.20;99.90;;;;;;4935400;29;20059;-74
2023/06/26 02:49:04;;;;;;;1999.90;999.90;;;22.20;99.90;;;;;;4919145;29;20166;-73
2023/06/26 02:51:32;;;;;;;1999.90;999.90;;;22.20;99.90;;;;;;4935967;29;20052;-75
2023/06/26 02:53:58;;;;;;;1999.90;999.90;;;22.10;99.90;;;;;;4936122;29;20047;-73
2023/06/26 02:56:24;;;;;;;1999.90;999.90;;;22.10;99.90;;;;;;4939723;29;20051;-73
2023/06/26 02:58:49;;;;;;;1999.90;999.90;;;22.10;99.90;;;;;;4938759;29;20055;-73
2023/06/26 03:01:15;;;;;;;1999.90;999.90;;;22.00;99.90;;;;;;4939266;29;20056;-74
2023/06/26 03:03:41;;;;;;;1999.90;999.90;;;22.00;99.90;;;;;;4938895;29;20481;-74
2023/06/26 03:06:07;;;;;;;1999.90;999.90;;;22.00;99.90;;;;;;4939683;29;20043;-74
2023/06/26 03:08:36;;;;;;;1999.90;999.90;;;21.90;99.90;;;;;;4939695;29;20050;-74
2023/06/26 03:11:01;;;;;;;1999.90;999.90;;;21.90;99.90;;;;;;4938187;29;20051;-75
2023/06/26 03:13:27;;;;;;;1999.90;999.90;;;21.90;99.90;;;;;;4939269;29;20132;-75
2023/06/26 03:15:53;;;;;;;1999.90;999.90;;;21.90;99.90;;;;;;4939689;29;20044;-75
2023/06/26 03:18:18;;;;;;;1999.90;999.90;;;21.90;99.90;;;;;;4938765;29;20504;-75
2023/06/26 03:20:44;;;;;;;1999.90;999.90;;;21.90;99.90;;;;;;4939822;29;20048;-75
2023/06/26 03:23:10;;;;;;;1999.90;999.90;;;21.90;99.90;;;;;;4939685;29;20378;-75
2023/06/26 03:25:35;;;;;;;1999.90;999.90;;;21.80;99.90;;;;;;4938079;29;20047;-75
2023/06/26 03:28:01;;;;;;;1999.90;999.90;;;21.90;99.90;;;;;;4939250;29;20056;-75
2023/06/26 03:30:27;;;;;;;1999.90;999.90;;;21.80;99.90;;;;;;4939599;29;20548;-74
2023/06/26 03:32:53;;;;;;;1999.90;999.90;;;21.80;99.90;;;;;;4939234;29;20043;-76
2023/06/26 03:35:19;;;;;;;1999.90;999.90;;;21.80;99.90;;;;;;4939445;29;20054;-75
2023/06/26 03:37:44;;;;;;;1999.90;999.90;;;21.80;99.90;;;;;;4938428;29;20555;-74
2023/06/26 03:40:10;;;;;;;1999.90;999.90;;;21.80;99.90;;;;;;4939295;29;20054;-74
2023/06/26 03:42:36;;;;;;;1999.90;999.90;;;21.80;99.90;;;;;;4922482;29;20079;-75
2023/06/26 03:45:02;;;;;;;1999.90;999.90;;;21.80;99.90;;;;;;4939124;29;20048;-74
2023/06/26 03:47:28;;;;;;;1999.90;999.90;;;21.70;99.90;;;;;;4938296;29;20201;-74
2023/06/26 03:49:53;;;;;;;1999.90;999.90;;;21.70;99.90;;;;;;4939165;29;20098;-74
2023/06/26 03:52:19;;;;;;;1999.90;999.90;;;21.70;99.90;;;;;;4938992;29;20043;-74
2023/06/26 03:54:45;;;;;;;1999.90;999.90;;;21.70;99.90;;;;;;4921966;29;20086;-75
2023/06/26 03:57:10;;;;;;;1999.90;999.90;;;21.70;99.90;;;;;;4939086;29;20055;-74
2023/06/26 03:59:36;;;;;;;1999.90;999.90;;;21.70;99.90;;;;;;4937802;29;20453;-75
2023/06/26 04:02:03;;;;;;;1999.90;999.90;;;21.70;99.90;;;;;;4937590;29;20480;-74
2023/06/26 04:04:29;;;;;;;1999.90;999.90;;;21.70;99.90;;;;;;4938977;29;20052;-74
2023/06/26 04:06:55;;;;;;;1999.90;999.90;;;21.70;99.90;;;;;;4920429;29;20567;-75
2023/06/26 04:09:21;;;;;;;1999.90;999.90;;;21.70;99.90;;;;;;4937678;29;20142;-75
2023/06/26 04:11:47;;;;;;;1999.90;999.90;;;21.70;99.90;;;;;;4938171;29;20047;-74
2023/06/26 04:14:12;;;;;;;1999.90;999.90;;;21.80;99.90;;;;;;4938664;29;20567;-74
2023/06/26 04:16:38;;;;;;;1999.90;999.90;;;21.70;99.90;;;;;;4938602;29;20052;-75
2023/06/26 04:19:04;;;;;;;1999.90;999.90;;;21.70;99.90;;;;;;4938703;29;20056;-74
2023/06/26 04:21:30;;;;;;;1999.90;999.90;;;21.80;99.90;;;;;;4937490;29;20142;-75
2023/06/26 04:23:56;;;;;;;1999.90;999.90;;;21.80;99.90;;;;;;4938298;29;20087;-75
2023/06/26 04:26:22;;;;;;;1999.90;999.90;;;21.80;99.90;;;;;;4937380;29;20520;-75
2023/06/26 04:28:48;;;;;;;1999.90;999.90;;;21.80;99.90;;;;;;4938217;29;20063;-74
2023/06/26 04:31:13;;;;;;;1999.90;999.90;;;21.80;99.90;;;;;;4937908;29;20066;-74
2023/06/26 04:33:39;;;;;;;1999.90;999.90;;;21.80;99.90;;;;;;4937087;29;20130;-75
2023/06/26 04:36:05;;;;;;;1999.90;999.90;;;21.80;99.90;;;;;;4938439;29;20048;-75
2023/06/26 04:38:35;;;;;;;1999.90;999.90;;;21.80;99.90;;;;;;4938153;29;20047;-75
2023/06/26 04:41:01;;;;;;;1999.90;999.90;;;21.80;99.90;;;;;;4937307;29;20051;-75
2023/06/26 04:43:27;;;;;;;1999.90;999.90;;;21.80;99.90;;;;;;4937285;29;20110;-74
2023/06/26 04:45:53;;;;;;;1999.90;999.90;;;21.80;99.90;;;;;;4938226;29;20048;-74
2023/06/26 04:48:18;;;;;;;1999.90;999.90;;;21.80;99.90;;;;;;4937159;29;20055;-73
2023/06/26 04:50:52;;;;;;;1999.90;999.90;;;21.80;99.90;;;;;;4921240;29;20548;-75
2023/06/26 04:53:18;;;;;;;1999.90;999.90;;;21.80;99.90;;;;;;4936973;29;20131;-74
2023/06/26 04:55:44;;;;;;;1999.90;999.90;;;21.80;99.90;;;;;;4938086;29;20118;-74
2023/06/26 04:58:09;;;;;;;1999.90;999.90;;;21.80;99.90;;;;;;4920969;29;20575;-74
2023/06/26 05:00:35;;;;;;;1999.90;999.90;;;21.80;99.90;;;;;;4936372;29;20506;-74
2023/06/26 05:03:01;;;;;;;1999.90;999.90;;;21.80;99.90;;;;;;4937453;29;20055;-73
2023/06/26 05:05:28;;;;;;;1999.90;999.90;;;21.80;99.90;;;;;;4920724;29;20074;-73
2023/06/26 05:07:55;;;;;;;1999.90;999.90;;;21.80;99.90;;;;;;4937809;29;20131;-74
2023/06/26 05:10:21;;;;;;;1999.90;999.90;;;21.80;99.90;;;;;;4937737;29;20052;-74
2023/06/26 05:12:47;;;;;;;1999.90;999.90;;;21.80;99.90;;;;;;4936701;29;20051;-73
2023/06/26 05:15:13;;;;;;;1999.90;999.90;;;21.80;99.90;;;;;;4937647;29;20043;-74
2023/06/26 05:17:38;;;;;;;1999.90;999.90;;;21.90;99.90;;;;;;4920151;29;20095;-70
2023/06/26 05:20:05;;;;;;;1999.90;999.90;;;21.90;99.90;;;;;;4937497;29;20048;-73
2023/06/26 05:22:35;;;;;;;1999.90;999.90;;;22.00;99.90;;;;;;4937504;29;20051;-71
2023/06/26 05:25:03;;;;;;;1999.90;999.90;;;22.00;99.90;;;;;;4937376;29;20048;-73
2023/06/26 05:27:29;;;;;;;1999.90;999.90;;;22.00;99.90;;;;;;4937126;29;20043;-71
2023/06/26 05:29:55;;;;;;;1999.90;999.90;;;22.10;99.90;;;;;;4936106;29;20515;-72
2023/06/26 05:32:21;;;;;;;1999.90;999.90;;;22.10;99.90;;;;;;4936651;29;20091;-71
2023/06/26 05:34:51;;;;;;;1999.90;999.90;;;22.10;99.90;;;;;;4936039;29;20056;-72
2023/06/26 05:37:20;;;;;;;1999.90;999.90;;;22.20;99.90;;;;;;4936189;29;20055;-72
2023/06/26 05:39:46;;;;;;;1999.90;999.90;;;22.20;99.90;;;;;;4936189;29;20456;-73
2023/06/26 05:42:12;;;;;;;1999.90;999.90;;;22.10;99.90;;;;;;4935966;29;20055;-72
2023/06/26 05:44:38;;;;;;;1999.90;999.90;;;22.10;99.90;;;;;;4935890;29;20059;-74
2023/06/26 05:47:04;;;;;;;1999.90;999.90;;;22.10;99.90;;;;;;4935818;29;20050;-73
2023/06/26 05:49:30;;;;;;;1999.90;999.90;;;22.10;99.90;;;;;;4936954;29;20460;-71
2023/06/26 05:51:56;;;;;;;1999.90;999.90;;;22.10;99.90;;;;;;4935764;29;20066;-73
2023/06/26 05:54:22;;;;;;;1999.90;999.90;;;22.20;99.90;;;;;;4920673;29;20087;-70
2023/06/26 05:56:49;;;;;;;1999.90;999.90;;;22.10;99.90;;;;;;4936806;29;20058;-71
2023/06/26 05:59:17;;;;;;;1999.90;999.90;;;22.00;99.90;;;;;;4936985;29;20064;-71
2023/06/26 06:01:43;;;;;;;1999.90;999.90;;;22.00;99.90;;;;;;4935133;29;20484;-72
2023/06/26 06:04:08;;;;;;;1999.90;999.90;;;21.90;99.90;;;;;;4936344;29;20130;-72
2023/06/26 06:06:34;;;;;;;1999.90;999.90;;;21.90;99.90;;;;;;4935500;29;20473;-71
2023/06/26 06:09:00;;;;;;;1999.90;999.90;;;21.90;99.90;;;;;;4936673;29;20056;-71
2023/06/26 06:11:25;;;;;;;1999.90;999.90;;;21.80;99.90;;;;;;4936750;29;20484;-71
2023/06/26 06:13:51;;;;;;;1999.90;999.90;;;21.70;99.90;;;;;;4936577;29;20055;-71
2023/06/26 06:16:17;;;;;;;1999.90;999.90;;;21.60;99.90;;;;;;4919350;29;20555;-72
2023/06/26 06:18:42;;;;;;;1999.90;999.90;;;21.60;99.90;;;;;;4935164;29;20067;-71
2023/06/26 06:21:08;;;;;;;1999.90;999.90;;;21.40;99.90;;;;;;4936421;29;20044;-75
2023/06/26 06:23:34;;;;;;;1999.90;999.90;;;21.40;99.90;;;;;;4935227;29;20054;-72
2023/06/26 06:25:59;;;;;;;1999.90;999.90;;;21.30;99.90;;;;;;4936419;29;20090;-70
2023/06/26 06:28:25;;;;;;;1999.90;999.90;;;21.20;99.90;;;;;;4935986;29;20069;-71
2023/06/26 06:30:51;;;;;;;1999.90;999.90;;;21.10;99.90;;;;;;4934374;29;20051;-71
2023/06/26 06:33:16;;;;;;;1999.90;999.90;;;21.00;99.90;;;;;;4919216;29;20059;-70
2023/06/26 06:35:42;;;;;;;1999.90;999.90;;;20.90;99.90;;;;;;4936607;29;20127;-70
2023/06/26 06:38:08;;;;;;;1999.90;999.90;;;20.80;99.90;;;;;;4936338;29;20052;-71
2023/06/26 06:40:33;;;;;;;1999.90;999.90;;;20.80;99.90;;;;;;4936331;29;20090;-70
2023/06/26 06:42:59;;;;;;;1999.90;999.90;;;20.80;99.90;;;;;;4936260;29;20047;-70
2023/06/26 06:45:25;;;;;;;1999.90;999.90;;;20.80;99.90;;;;;;4936091;29;20374;-70
2023/06/26 06:47:50;;;;;;;1999.90;999.90;;;20.80;99.90;;;;;;4935943;29;20130;-69
2023/06/26 06:50:17;;;;;;;1999.90;999.90;;;20.80;99.90;;;;;;4934461;29;20055;-70
2023/06/26 06:52:43;;;;;;;1999.90;999.90;;;20.80;99.90;;;;;;4935165;29;20135;-72
2023/06/26 06:55:09;;;;;;;1999.90;999.90;;;20.80;99.90;;;;;;4936070;29;20540;-72
2023/06/26 06:57:39;;;;;;;1999.90;999.90;;;20.80;99.90;;;;;;4936289;29;20052;-71
2023/06/26 07:00:09;;;;;;;1999.90;999.90;;;20.80;99.90;;;;;;4936133;29;20087;-70
2023/06/26 07:02:40;;;;;;;1999.90;999.90;;;20.80;99.90;;;;;;4935191;29;20441;-71
2023/06/26 07:05:06;;;;;;;1999.90;999.90;;;20.80;99.90;;;;;;4935892;29;20043;-71
2023/06/26 07:07:33;;;;;;;1999.90;999.90;;;20.90;99.90;;;;;;4935998;29;20090;-71
2023/06/26 07:10:05;;;;;;;1999.90;999.90;;;20.90;99.90;;;;;;4936063;29;20060;-70
2023/06/26 07:12:31;;;;;;;1999.90;999.90;;;20.90;99.90;;;;;;4934563;29;20047;-70
2023/06/26 07:14:57;;;;;;;1999.90;999.90;;;20.90;99.90;;;;;;4935815;29;20070;-70
2023/06/26 07:17:23;;;;;;;1999.90;999.90;;;20.90;99.90;;;;;;4936593;29;20054;-71
2023/06/26 07:19:49;;;;;;;1999.90;999.90;;;20.90;99.90;;;;;;4935155;29;20134;-71
2023/06/26 07:22:16;;;;;;;1999.90;999.90;;;21.00;99.90;;;;;;4934704;29;20103;-72
2023/06/26 07:24:42;;;;;;;1999.90;999.90;;;21.00;99.90;;;;;;4935683;29;20044;-70
2023/06/26 07:27:07;;;;;;;1999.90;999.90;;;21.00;99.90;;;;;;4935674;29;20059;-73
2023/06/26 07:29:33;;;;;;;1999.90;999.90;;;21.10;99.90;;;;;;4935654;29;20171;-70
2023/06/26 07:31:59;;;;;;;1999.90;999.90;;;21.10;99.90;;;;;;4934262;29;20063;-73
2023/06/26 07:34:25;;;;;;;1999.90;999.90;;;21.10;99.90;;;;;;4934621;29;20048;-73
2023/06/26 07:36:50;;;;;;;1999.90;999.90;;;21.10;99.90;;;;;;4935822;29;20090;-72
2023/06/26 07:39:16;;;;;;;1999.90;999.90;;;21.20;99.90;;;;;;4936067;29;20052;-72
2023/06/26 07:41:42;;;;;;;1999.90;999.90;;;21.30;99.90;;;;;;4938601;29;20047;-72
2023/06/26 07:44:07;;;;;;;1999.90;999.90;;;21.30;99.90;;;;;;4939233;29;20051;-71
2023/06/26 07:46:33;;;;;;;1999.90;999.90;;;21.40;99.90;;;;;;4939220;29;20051;-71
2023/06/26 07:48:59;;;;;;;1999.90;999.90;;;21.40;99.90;;;;;;4938489;29;20055;-69
2023/06/26 07:51:24;;;;;;;1999.90;999.90;;;21.40;99.90;;;;;;4938349;29;20051;-71
2023/06/26 07:53:50;;;;;;;1999.90;999.90;;;21.40;99.90;;;;;;4922718;29;20547;-68
2023/06/26 07:56:16;;;;;;;1999.90;999.90;;;21.50;99.90;;;;;;4939122;29;20107;-70
2023/06/26 07:58:41;;;;;;;1999.90;999.90;;;21.50;99.90;;;;;;4938866;29;20047;-70
2023/06/26 08:01:07;;;;;;;1999.90;999.90;;;21.60;99.90;;;;;;4937521;29;20051;-69
2023/06/26 08:03:33;;;;;;;1999.90;999.90;;;21.60;99.90;;;;;;4939080;29;20048;-70
2023/06/26 08:05:58;;;;;;;1999.90;999.90;;;21.60;99.90;;;;;;4938988;29;20119;-69
2023/06/26 08:08:24;;;;;;;1999.90;999.90;;;21.50;99.90;;;;;;4922543;29;20055;-69
2023/06/26 08:10:50;;;;;;;1999.90;999.90;;;21.60;99.90;;;;;;4922091;29;20095;-70
2023/06/26 08:13:15;;;;;;;1999.90;999.90;;;21.60;99.90;;;;;;4937517;29;20055;-69
2023/06/26 08:15:41;;;;;;;1999.90;999.90;;;21.60;99.90;;;;;;4938745;29;20051;-70
2023/06/26 08:18:07;;;;;;;1999.90;999.90;;;21.60;99.90;;;;;;4937748;29;20052;-72
2023/06/26 08:20:35;;;;;;;1999.90;999.90;;;21.60;99.90;;;;;;4927564;29;20130;-70
2023/06/26 08:23:01;;;;;;;1999.90;999.90;;;21.60;99.90;;;;;;4909030;29;20056;-72
2023/06/26 08:25:27;;;;;;;1999.90;999.90;;;21.70;99.90;;;;;;4907596;29;20400;-71
2023/06/26 08:27:53;;;;;;;1999.90;999.90;;;21.70;99.90;;;;;;4910376;29;20056;-72
2023/06/26 08:30:19;;;;;;;1999.90;999.90;;;21.80;99.90;;;;;;4908199;29;20085;-72
2023/06/26 08:32:45;;;;;;;1999.90;999.90;;;21.80;99.90;;;;;;4892034;29;20080;-71
2023/06/26 08:35:11;;;;;;;1999.90;999.90;;;21.80;99.90;;;;;;4910620;29;20044;-69
2023/06/26 08:37:36;;;;;;;1999.90;999.90;;;21.80;99.90;;;;;;4909130;29;20052;-71
2023/06/26 08:40:03;;;;;;;1999.90;999.90;;;21.90;99.90;;;;;;4909128;29;20497;-72
2023/06/26 08:42:29;;;;;;;1999.90;999.90;;;21.80;99.90;;;;;;4893538;29;20052;-71
2023/06/26 08:44:55;;;;;;;1999.90;999.90;;;21.80;99.90;;;;;;4907553;29;20045;-71
2023/06/26 08:47:22;;;;;;;1999.90;999.90;;;21.90;99.90;;;;;;4909366;29;20044;-72
2023/06/26 08:50:09;;;;;;;1999.90;999.90;;;21.80;99.90;;;;;;4907105;29;20085;-72
2023/06/26 08:52:40;;;;;;;1999.90;999.90;;;21.80;99.90;;;;;;4898603;29;20056;-71
2023/06/26 08:55:09;;;;;;;1999.90;999.90;;;21.70;99.90;;;;;;4900316;29;20051;-69
2023/06/26 08:57:36;;;;;;;1999.90;999.90;;;21.80;99.90;;;;;;4899368;29;20058;-72
2023/06/26 09:00:03;;;;;;;1999.90;999.90;;;21.80;99.90;;;;;;4900637;29;20131;-71
2023/06/26 09:02:29;;;;;;;1999.90;999.90;;;21.80;99.90;;;;;;4899947;29;20044;-70
2023/06/26 09:04:55;;;;;;;1999.90;999.90;;;21.80;99.90;;;;;;4898937;29;20410;-70
2023/06/26 09:07:20;;;;;;;1999.90;999.90;;;21.80;99.90;;;;;;4900195;29;20048;-71
2023/06/26 09:09:46;;;;;;;1999.90;999.90;;;21.80;99.90;;;;;;4899871;29;20142;-71
2023/06/26 09:12:13;;;;;;;1999.90;999.90;;;21.90;99.90;;;;;;4900122;29;20135;-71
2023/06/26 09:14:39;;;;;;;1999.90;999.90;;;21.90;99.90;;;;;;4900019;29;20080;-71
2023/06/26 09:17:05;;;;;;;1999.90;999.90;;;22.00;99.90;;;;;;4899987;29;20048;-72
2023/06/26 09:19:31;;;;;;;1999.90;999.90;;;22.00;99.90;;;;;;4899802;29;20051;-71
2023/06/26 09:21:57;;;;;;;1999.90;999.90;;;22.00;99.90;;;;;;4899708;29;20056;-72
2023/06/26 09:24:23;;;;;;;1999.90;999.90;;;22.00;99.90;;;;;;4899337;29;20135;-72
2023/06/26 09:26:49;;;;;;;1999.90;999.90;;;21.90;99.90;;;;;;4899740;29;20132;-71
2023/06/26 09:29:17;;;;;;;1999.90;999.90;;;21.90;99.90;;;;;;4899584;29;20073;-72
2023/06/26 09:31:44;;;;;;;1999.90;999.90;;;21.90;99.90;;;;;;4899147;29;20099;-71
2023/06/26 09:34:10;;;;;;;1999.90;999.90;;;21.90;99.90;;;;;;4899196;29;20109;-70
2023/06/26 09:36:36;;;;;;;1999.90;999.90;;;21.90;99.90;;;;;;4899452;29;20059;-71
2023/06/26 09:39:04;;;;;;;1999.90;999.90;;;21.90;99.90;;;;;;4882845;29;20137;-71
2023/06/26 09:41:30;;;;;;;1999.90;999.90;;;21.80;99.90;;;;;;4899878;29;20095;-70
2023/06/26 09:44:02;;;;;;;1999.90;999.90;;;21.80;99.90;;;;;;4898576;29;20473;-73
2023/06/26 09:46:28;;;;;;;1999.90;999.90;;;21.80;99.90;;;;;;4915113;29;20445;-71
2023/06/26 09:49:05;;;;;;;1999.90;999.90;;;21.80;99.90;;;;;;4913653;29;20128;-70
2023/06/26 09:51:35;;;;;;;1999.90;999.90;;;21.90;99.90;;;;;;4911738;29;20048;-69
2023/06/26 09:54:01;;;;;;;1999.90;999.90;;;21.90;99.90;;;;;;4906839;29;20049;-70
2023/06/26 09:56:31;;;;;;;1999.90;999.90;;;21.90;99.90;;;;;;4907956;29;20048;-73
2023/06/26 09:58:58;;;;;;;1999.90;999.90;;;21.90;99.90;;;;;;4907256;29;20040;-71
2023/06/26 10:01:25;;;;;;;1999.90;999.90;;;22.00;99.90;;;;;;4907076;29;20048;-70
2023/06/26 10:03:51;;;;;;;1999.90;999.90;;;22.00;99.90;;;;;;4906528;29;20054;-70
2023/06/26 10:06:29;;;;;;;1999.90;999.90;;;22.00;99.90;;;;;;4905594;29;20052;-71
2023/06/26 10:08:58;;;;;;;1999.90;999.90;;;22.00;99.90;;;;;;4907182;29;20448;-70
2023/06/26 10:11:27;;;;;;;1999.90;999.90;;;22.10;99.90;;;;;;4907486;29;20050;-70
2023/06/26 10:13:54;;;;;;;1999.90;999.90;;;22.20;99.90;;;;;;4907834;29;20048;-69
2023/06/26 10:16:28;;;;;;;1999.90;999.90;;;22.30;99.90;;;;;;4906943;29;20076;-70
2023/06/26 10:19:00;;;;;;;1999.90;999.90;;;22.30;99.90;;;;;;4907478;29;20040;-68
2023/06/26 10:21:27;;;;;;;1999.90;999.90;;;22.30;99.90;;;;;;4907069;29;20204;-70
2023/06/26 10:23:54;;;;;;;1999.90;999.90;;;22.40;99.90;;;;;;4905084;29;20044;-69
2023/06/26 10:26:22;;;;;;;1999.90;999.90;;;22.40;99.90;;;;;;4906397;29;20120;-69
2023/06/26 10:28:51;;;;;;;1999.90;999.90;;;22.50;99.90;;;;;;4909043;29;20092;-71
2023/06/26 10:31:21;;;;;;;1999.90;999.90;;;22.50;99.90;;;;;;4914547;29;20060;-69
2023/06/26 10:33:47;;;;;;;1999.90;999.90;;;22.50;99.90;;;;;;4916238;29;20048;-69
2023/06/26 10:36:18;;;;;;;1999.90;999.90;;;22.50;99.90;;;;;;4915183;29;20056;-68
2023/06/26 10:38:55;;;;;;;1999.90;999.90;;;22.60;99.90;;;;;;4916134;29;20055;-69
2023/06/26 10:41:23;;;;;;;1999.90;999.90;;;22.60;99.90;;;;;;4916084;29;20054;-69
2023/06/26 10:44:08;;;;;;;1999.90;999.90;;;22.70;99.90;;;;;;4915054;29;20060;-70
2023/06/26 10:46:52;;;;;;;1999.90;999.90;;;22.70;99.90;;;;;;4916274;29;20048;-70
2023/06/26 10:49:19;;;;;;;1999.90;999.90;;;22.80;99.90;;;;;;4910119;29;20055;-69
2023/06/26 10:51:49;;;;;;;1999.90;999.90;;;22.90;99.90;;;;;;4908100;29;20044;-70
2023/06/26 10:54:16;;;;;;;1999.90;999.90;;;23.00;99.90;;;;;;4905006;29;20041;-69
2023/06/26 10:56:47;;;;;;;1999.90;999.90;;;23.00;99.90;;;;;;4907853;29;20052;-69
2023/06/26 10:59:33;;;;;;;1999.90;999.90;;;23.00;99.90;;;;;;4905881;29;20119;-70
2023/06/26 11:02:01;;;;;;;1999.90;999.90;;;22.90;99.10;;;;;;4906586;29;20394;-71
2023/06/26 11:04:43;;;;;;;1999.90;999.90;;;22.90;99.90;;;;;;4904395;29;20067;-69
2023/06/26 11:07:20;;;;;;;1999.90;999.90;;;22.90;99.70;;;;;;4906099;29;20516;-72
2023/06/26 11:10:09;;;;;;;1999.90;999.90;;;22.90;99.70;;;;;;4904376;29;20088;-70
2023/06/26 11:12:41;;;;;;;1999.90;999.90;;;22.90;97.90;;;;;;4909602;29;20051;-70
2023/06/26 11:15:14;;;;;;;;;;;22.90;98.50;;;;;;4907357;29;20535;-72
2023/06/26 11:17:41;;;;;;;1999.90;999.90;;;22.90;98.10;;;;;;4910895;29;20022;-69
2023/06/26 11:20:14;;;;;;;1999.90;999.90;;;22.90;98.00;;;;;;4909108;29;20051;-68
2023/06/26 11:22:43;;;;;;;1999.90;999.90;;;23.00;98.00;;;;;;4907509;29;20394;-71
2023/06/26 11:25:10;;;;;;;1999.90;999.90;;;23.00;97.90;;;;;;4910528;29;20048;-71
2023/06/26 11:27:39;;;;;;;1999.90;999.90;;;22.90;98.10;;;;;;4909214;29;20111;-70
2023/06/26 11:30:06;;;;;;;1999.90;999.90;;;22.80;98.10;;;;;;4908367;29;20053;-75
2023/06/26 11:32:34;;;;;;;1999.90;999.90;;;22.90;98.10;;;;;;4909186;29;20074;-70
2023/06/26 11:35:00;;;;;;;1999.90;999.90;;;22.90;98.10;;;;;;4908932;29;20477;-70
2023/06/26 11:37:26;;;;;;;1999.90;999.90;;;22.90;97.90;;;;;;4908412;29;20505;-69
2023/06/26 11:39:53;;;;;;;1999.90;999.90;;;22.80;97.90;;;;;;4908018;29;20063;-69
2023/06/26 11:42:20;;;;;;;1999.90;999.90;;;22.80;97.60;;;;;;4908662;29;20095;-70
2023/06/26 11:44:46;;;;;;;1999.90;999.90;;;22.80;97.40;;;;;;4908482;29;20048;-68
2023/06/26 11:47:17;;;;;;;1999.90;999.90;;;22.80;97.40;;;;;;4908390;29;20052;-70
2023/06/26 11:49:47;;;;;;;1999.90;999.90;;;22.80;97.40;;;;;;4912366;29;20060;-70
2023/06/26 11:52:14;;;;;;;1999.90;999.90;;;22.90;97.60;;;;;;4919070;29;20056;-69
2023/06/26 11:54:41;;;;;;;1999.90;999.90;;;22.90;97.30;;;;;;4918506;29;20079;-70
2023/06/26 11:57:07;;;;;;;1999.90;999.90;;;23.00;96.70;;;;;;4917338;29;20123;-71
2023/06/26 11:59:37;;;;;;;1999.90;999.90;;;23.00;95.80;;;;;;4918939;29;20127;-69